Time;durP1;ratioP1;P1;durP2;ratioP2;P2;SDS_P1;SDS_P2;PMS_P1;PMS_P2;Temp;Humidity;BMP_temperature;BMP_pressure;BME280_temperature;BME280_humidity;BME280_pressure;Samples;Min_cycle;Max_cycle;Signal;HPM_P1;HPM_P2
2022/02/13 00:02:58;;;;;;;12.93;7.25;;;0.30;99.90;;;;;;5100824;28;20057;-49
2022/02/13 00:06:23;;;;;;;16.45;8.27;;;0.20;99.90;;;;;;5106325;28;20036;-47
2022/02/13 00:09:49;;;;;;;17.05;7.90;;;0.30;99.90;;;;;;5107994;28;20027;-47
2022/02/13 00:13:14;;;;;;;15.23;8.00;;;0.30;99.90;;;;;;5103679;28;20036;-49
2022/02/13 00:16:39;;;;;;;13.68;7.22;;;0.20;99.90;;;;;;5100971;28;20032;-47
2022/02/13 00:20:05;;;;;;;17.10;6.72;;;0.20;99.90;;;;;;5100547;28;20118;-50
2022/02/13 00:23:30;;;;;;;13.32;7.80;;;0.20;99.90;;;;;;5106431;28;20055;-53
2022/02/13 00:26:55;;;;;;;11.57;7.13;;;0.20;99.90;;;;;;5094289;28;20036;-48
2022/02/13 00:30:21;;;;;;;14.38;7.90;;;0.20;99.90;;;;;;5101109;28;20067;-49
2022/02/13 00:33:46;;;;;;;13.88;6.97;;;0.20;99.90;;;;;;5102276;28;20032;-51
2022/02/13 00:37:12;;;;;;;14.95;9.02;;;0.20;99.90;;;;;;5092883;28;20040;-47
2022/02/13 00:40:37;;;;;;;15.73;8.82;;;0.20;99.90;;;;;;5102538;28;20070;-51
2022/02/13 00:44:02;;;;;;;14.45;7.60;;;0.20;99.90;;;;;;5100164;28;20044;-50
2022/02/13 00:47:28;;;;;;;12.00;6.85;;;0.20;99.90;;;;;;5100383;28;20032;-49
2022/02/13 00:50:53;;;;;;;11.45;5.82;;;0.10;99.90;;;;;;5104162;28;20203;-49
2022/02/13 00:54:18;;;;;;;12.70;4.97;;;0.00;99.90;;;;;;5102188;28;20027;-50
2022/02/13 00:57:44;;;;;;;11.25;6.25;;;0.00;99.90;;;;;;5086166;28;20517;-47
2022/02/13 01:01:09;;;;;;;13.45;7.10;;;0.20;99.90;;;;;;5103909;28;20051;-52
2022/02/13 01:04:34;;;;;;;21.10;9.52;;;0.30;99.90;;;;;;5101803;28;20129;-51
2022/02/13 01:08:00;;;;;;;14.15;7.47;;;0.40;99.90;;;;;;5098607;28;20040;-49
2022/02/13 01:11:25;;;;;;;13.05;7.28;;;0.40;99.90;;;;;;5099938;28;20081;-50
2022/02/13 01:14:51;;;;;;;15.73;8.30;;;0.40;99.90;;;;;;5090224;28;20071;-52
2022/02/13 01:18:16;;;;;;;11.48;6.75;;;0.40;99.90;;;;;;5096840;28;20097;-48
2022/02/13 01:21:41;;;;;;;15.20;7.75;;;0.40;99.90;;;;;;5099030;28;20040;-51
2022/02/13 01:25:06;;;;;;;11.23;6.75;;;0.30;99.90;;;;;;5099324;28;20076;-51
2022/02/13 01:28:32;;;;;;;13.88;7.05;;;0.20;99.90;;;;;;5099777;28;20054;-49
2022/02/13 01:31:57;;;;;;;14.18;8.07;;;0.20;99.90;;;;;;5093988;28;20039;-52
2022/02/13 01:35:23;;;;;;;13.38;8.20;;;0.20;99.90;;;;;;5101358;28;20110;-48
2022/02/13 01:38:48;;;;;;;15.25;7.90;;;0.30;99.90;;;;;;5094064;28;20510;-50
2022/02/13 01:42:13;;;;;;;12.70;7.22;;;0.30;99.90;;;;;;5103660;28;20080;-51
2022/02/13 01:45:39;;;;;;;12.65;7.30;;;0.30;99.90;;;;;;5101359;28;20046;-49
2022/02/13 01:49:04;;;;;;;18.83;8.95;;;0.40;99.90;;;;;;5099092;28;20140;-49
2022/02/13 01:52:29;;;;;;;11.50;6.95;;;0.50;99.90;;;;;;5098715;28;20043;-50
2022/02/13 01:55:55;;;;;;;14.65;8.27;;;0.40;99.90;;;;;;5104248;28;20088;-48
2022/02/13 01:59:20;;;;;;;19.60;8.43;;;0.30;99.90;;;;;;5104696;28;20114;-50
2022/02/13 02:02:45;;;;;;;14.32;7.97;;;0.40;99.90;;;;;;5094935;28;20066;-53
2022/02/13 02:06:11;;;;;;;12.70;8.13;;;0.30;99.90;;;;;;5098929;28;20043;-52
2022/02/13 02:09:36;;;;;;;14.55;7.78;;;0.20;99.90;;;;;;5104871;28;20066;-52
2022/02/13 02:13:01;;;;;;;16.10;9.07;;;0.10;99.90;;;;;;5097356;28;20054;-48
2022/02/13 02:16:27;;;;;;;16.20;9.60;;;0.00;99.90;;;;;;5098891;28;20024;-53
2022/02/13 02:19:52;;;;;;;17.42;9.07;;;0.00;99.90;;;;;;5104657;28;20491;-48
2022/02/13 02:23:17;;;;;;;17.42;9.57;;;0.00;99.90;;;;;;5102268;28;20058;-49
2022/02/13 02:26:43;;;;;;;17.15;9.07;;;-0.10;99.90;;;;;;5098608;28;20040;-48
2022/02/13 02:30:08;;;;;;;14.48;9.23;;;-0.20;99.90;;;;;;5091902;28;20403;-50
2022/02/13 02:33:33;;;;;;;19.75;10.40;;;-0.30;99.90;;;;;;5105302;28;20039;-48
2022/02/13 02:36:59;;;;;;;21.88;11.55;;;-0.20;99.90;;;;;;5103638;28;20130;-49
2022/02/13 02:40:24;;;;;;;20.67;10.18;;;-0.20;99.90;;;;;;5102530;28;20046;-50
2022/02/13 02:43:50;;;;;;;17.77;9.07;;;-0.20;99.90;;;;;;5099345;28;20046;-49
2022/02/13 02:47:15;;;;;;;20.00;10.70;;;-0.30;99.90;;;;;;5096573;28;20063;-49
2022/02/13 02:50:40;;;;;;;20.25;9.90;;;-0.30;99.90;;;;;;5100176;28;20607;-48
2022/02/13 02:54:06;;;;;;;18.67;8.82;;;-0.30;99.90;;;;;;5091396;28;20066;-51
2022/02/13 02:57:31;;;;;;;16.77;9.60;;;-0.40;99.90;;;;;;5100414;28;20130;-48
2022/02/13 03:00:56;;;;;;;17.33;9.10;;;-0.40;99.90;;;;;;5103135;28;20403;-49
2022/02/13 03:04:22;;;;;;;14.93;8.35;;;-0.40;99.90;;;;;;5106158;28;20051;-48
2022/02/13 03:07:47;;;;;;;23.98;10.05;;;-0.50;99.90;;;;;;5090724;28;20479;-49
2022/02/13 03:11:12;;;;;;;17.80;9.65;;;-0.50;99.90;;;;;;5106559;28;20047;-48
2022/02/13 03:14:38;;;;;;;17.33;9.07;;;-0.50;99.90;;;;;;5105080;28;20116;-50
2022/02/13 03:18:03;;;;;;;18.10;9.82;;;-0.50;99.90;;;;;;5092277;28;20039;-49
2022/02/13 03:21:28;;;;;;;14.68;7.95;;;-0.60;99.90;;;;;;5106520;28;20043;-51
2022/02/13 03:24:58;;;;;;;21.92;9.68;;;-0.80;99.90;;;;;;5108631;28;20050;-50
2022/02/13 03:28:19;;;;;;;17.83;8.40;;;-0.80;99.90;;;;;;5103134;28;20032;-50
2022/02/13 03:31:44;;;;;;;17.60;9.50;;;-0.90;99.90;;;;;;5091762;28;20119;-47
2022/02/13 03:35:10;;;;;;;17.00;9.45;;;-0.90;99.90;;;;;;5108319;28;20039;-50
2022/02/13 03:38:35;;;;;;;17.63;9.35;;;-0.90;99.90;;;;;;5104294;28;20028;-47
2022/02/13 03:42:00;;;;;;;20.17;9.73;;;-1.00;99.90;;;;;;5111762;28;20124;-49
2022/02/13 03:45:26;;;;;;;19.10;9.93;;;-1.00;99.90;;;;;;5108186;28;20101;-52
2022/02/13 03:48:51;;;;;;;20.88;9.55;;;-1.00;99.90;;;;;;5105349;28;20027;-47
2022/02/13 03:52:17;;;;;;;17.67;8.85;;;-1.00;99.90;;;;;;5091563;28;20028;-47
2022/02/13 03:55:42;;;;;;;21.63;10.73;;;-0.90;99.90;;;;;;5106032;28;20145;-48
2022/02/13 03:59:07;;;;;;;17.17;8.48;;;-0.90;99.90;;;;;;5107894;28;20043;-48
2022/02/13 04:02:33;;;;;;;17.02;8.77;;;-1.00;99.90;;;;;;5105865;28;20059;-49
2022/02/13 04:05:58;;;;;;;16.00;8.35;;;-1.00;99.90;;;;;;5105313;28;20081;-49
2022/02/13 04:09:23;;;;;;;15.13;8.13;;;-1.00;99.90;;;;;;5103857;28;20122;-48
2022/02/13 04:12:49;;;;;;;18.67;9.98;;;-1.00;99.90;;;;;;5105239;28;20517;-51
2022/02/13 04:16:14;;;;;;;23.00;9.95;;;-0.90;99.90;;;;;;5105694;28;20122;-67
2022/02/13 04:19:39;;;;;;;16.13;8.90;;;-0.90;99.90;;;;;;5103709;28;20080;-66
2022/02/13 04:23:05;;;;;;;21.65;10.00;;;-1.00;99.90;;;;;;5109070;28;20047;-66
2022/02/13 04:26:30;;;;;;;17.98;9.27;;;-0.90;99.90;;;;;;5109139;28;20067;-66
2022/02/13 04:29:56;;;;;;;20.52;10.45;;;-0.80;99.90;;;;;;5103655;28;20044;-67
2022/02/13 04:33:21;;;;;;;17.38;9.73;;;-0.80;99.90;;;;;;5107119;28;20032;-66
2022/02/13 04:36:46;;;;;;;21.85;10.25;;;-0.80;99.90;;;;;;5110778;28;20024;-66
2022/02/13 04:40:11;;;;;;;17.90;9.50;;;-0.70;99.90;;;;;;5105084;28;20039;-66
2022/02/13 04:43:37;;;;;;;20.02;9.70;;;-0.80;99.90;;;;;;5095756;28;20130;-66
2022/02/13 04:47:02;;;;;;;20.40;10.95;;;-0.90;99.90;;;;;;5090518;28;20043;-66
2022/02/13 04:50:28;;;;;;;17.90;9.18;;;-0.90;99.90;;;;;;5107226;28;20035;-66
2022/02/13 04:53:53;;;;;;;16.90;8.48;;;-0.90;99.90;;;;;;5103752;28;20034;-66
2022/02/13 04:57:18;;;;;;;19.73;10.13;;;-1.00;99.90;;;;;;5090012;28;20633;-66
2022/02/13 05:00:45;;;;;;;22.73;9.90;;;-1.00;99.90;;;;;;5104631;28;20038;-66
2022/02/13 05:04:09;;;;;;;15.93;8.82;;;-1.00;99.90;;;;;;5102342;28;20528;-66
2022/02/13 05:07:34;;;;;;;16.85;9.40;;;-1.10;99.90;;;;;;5089836;28;20036;-66
2022/02/13 05:11:00;;;;;;;19.02;10.68;;;-1.10;99.90;;;;;;5089956;28;20546;-66
2022/02/13 05:14:25;;;;;;;22.40;10.73;;;-1.20;99.90;;;;;;5106304;28;20046;-66
2022/02/13 05:17:51;;;;;;;19.73;9.20;;;-1.20;99.90;;;;;;5106469;28;20091;-66
2022/02/13 05:21:16;;;;;;;17.73;9.68;;;-1.20;99.90;;;;;;5103793;28;20081;-66
2022/02/13 05:24:41;;;;;;;19.35;9.40;;;-1.10;99.90;;;;;;5099607;28;20032;-67
2022/02/13 05:28:07;;;;;;;19.30;10.25;;;-1.10;99.90;;;;;;5104101;28;20036;-66
2022/02/13 05:31:32;;;;;;;22.52;10.40;;;-1.10;99.90;;;;;;5104137;28;20036;-67
2022/02/13 05:34:57;;;;;;;23.77;10.45;;;-1.10;99.90;;;;;;5106407;28;20502;-66
2022/02/13 05:38:23;;;;;;;18.88;10.77;;;-1.20;99.90;;;;;;5101091;28;20040;-66
2022/02/13 05:41:48;;;;;;;18.15;9.43;;;-1.20;99.90;;;;;;5101873;28;20036;-66
2022/02/13 05:45:13;;;;;;;19.60;10.45;;;-1.10;99.90;;;;;;5109655;28;20062;-66
2022/02/13 05:48:40;;;;;;;19.00;10.30;;;-1.20;99.90;;;;;;5103259;28;20034;-66
2022/02/13 05:52:04;;;;;;;14.52;8.57;;;-1.10;99.90;;;;;;5101652;28;20467;-66
2022/02/13 05:55:29;;;;;;;22.48;11.55;;;-1.10;99.90;;;;;;5089291;28;20035;-66
2022/02/13 05:58:55;;;;;;;16.88;8.93;;;-1.10;99.90;;;;;;5105408;28;20523;-66
2022/02/13 06:02:20;;;;;;;20.63;10.88;;;-1.20;99.90;;;;;;5101656;28;20043;-66
2022/02/13 06:05:46;;;;;;;18.17;8.25;;;-1.10;99.90;;;;;;5103721;28;20505;-66
2022/02/13 06:09:11;;;;;;;20.98;9.38;;;-1.10;99.90;;;;;;5103579;28;20047;-66
2022/02/13 06:12:36;;;;;;;20.40;10.13;;;-1.00;99.90;;;;;;5105514;28;20092;-66
2022/02/13 06:16:02;;;;;;;14.68;8.68;;;-1.10;99.90;;;;;;5089021;28;20039;-66
2022/02/13 06:19:27;;;;;;;15.32;9.23;;;-1.00;99.90;;;;;;5103391;28;20058;-67
2022/02/13 06:22:52;;;;;;;15.05;8.70;;;-1.00;99.90;;;;;;5105454;28;20048;-67
2022/02/13 06:26:18;;;;;;;15.80;9.32;;;-1.00;99.90;;;;;;5107230;28;20399;-66
2022/02/13 06:29:43;;;;;;;17.10;9.20;;;-0.90;99.90;;;;;;5103532;28;20065;-66
2022/02/13 06:33:08;;;;;;;17.60;9.57;;;-0.80;99.90;;;;;;5105288;28;20067;-66
2022/02/13 06:36:34;;;;;;;19.33;9.88;;;-0.70;99.90;;;;;;5107295;28;20036;-66
2022/02/13 06:39:59;;;;;;;23.23;11.13;;;-0.60;99.90;;;;;;5107657;28;20123;-66
2022/02/13 06:43:24;;;;;;;15.70;8.80;;;-0.60;99.90;;;;;;5101883;28;20047;-66
2022/02/13 06:46:50;;;;;;;14.93;8.63;;;-0.60;99.90;;;;;;5107651;28;20032;-66
2022/02/13 06:50:15;;;;;;;15.00;8.52;;;-0.50;99.90;;;;;;5105750;28;20059;-66
2022/02/13 06:53:41;;;;;;;16.10;8.40;;;-0.50;99.90;;;;;;5105477;28;20483;-66
2022/02/13 06:57:06;;;;;;;19.55;10.07;;;-0.30;99.90;;;;;;5112918;28;20043;-67
2022/02/13 07:00:31;;;;;;;14.18;8.65;;;-0.30;99.90;;;;;;5108068;28;20035;-66
2022/02/13 07:03:57;;;;;;;18.45;8.98;;;-0.20;99.90;;;;;;5106577;28;20090;-67
2022/02/13 07:07:22;;;;;;;47.67;10.65;;;0.10;99.90;;;;;;5092655;28;20032;-67
2022/02/13 07:10:47;;;;;;;14.60;8.10;;;0.50;99.90;;;;;;5108604;28;20038;-67
2022/02/13 07:14:13;;;;;;;10.57;6.95;;;1.00;99.90;;;;;;5104661;28;20406;-66
2022/02/13 07:17:38;;;;;;;13.38;7.30;;;1.60;99.90;;;;;;5092243;28;20032;-67
2022/02/13 07:21:04;;;;;;;18.73;8.35;;;2.40;99.90;;;;;;5110473;28;20051;-66
2022/02/13 07:24:29;;;;;;;10.55;6.13;;;2.80;99.90;;;;;;5110547;28;20149;-67
2022/02/13 07:27:54;;;;;;;12.15;6.75;;;3.30;99.90;;;;;;5104679;28;20047;-66
2022/02/13 07:31:20;;;;;;;9.90;6.13;;;3.90;99.80;;;;;;5112133;28;20035;-66
2022/02/13 07:34:45;;;;;;;13.02;7.57;;;4.60;93.80;;;;;;5106154;28;20035;-66
2022/02/13 07:38:10;;;;;;;12.55;6.55;;;4.90;94.20;;;;;;5104497;28;20035;-66
2022/02/13 07:41:37;;;;;;;12.57;6.47;;;4.30;91.10;;;;;;5092123;28;20491;-67
2022/02/13 07:45:01;;;;;;;10.07;6.00;;;4.40;92.00;;;;;;5101715;28;20085;-67
2022/02/13 07:48:26;;;;;;;9.70;6.18;;;5.40;89.00;;;;;;5094345;28;20119;-67
2022/02/13 07:51:52;;;;;;;13.30;7.32;;;5.90;78.10;;;;;;5111625;28;20484;-67
2022/02/13 07:55:17;;;;;;;10.77;5.95;;;6.70;73.20;;;;;;5091532;28;20032;-66
2022/02/13 07:58:42;;;;;;;11.38;6.93;;;7.40;54.80;;;;;;5104300;28;20065;-66
2022/02/13 08:02:08;;;;;;;7.85;5.63;;;6.50;61.00;;;;;;5091529;28;20044;-67
2022/02/13 08:05:33;;;;;;;10.57;6.45;;;6.40;67.10;;;;;;5091371;28;20128;-66
2022/02/13 08:08:58;;;;;;;12.38;6.03;;;6.00;70.50;;;;;;5104098;28;20609;-67
2022/02/13 08:12:24;;;;;;;9.85;5.45;;;6.00;65.60;;;;;;5108583;28;20183;-67
2022/02/13 08:15:51;;;;;;;6.70;4.57;;;7.10;63.20;;;;;;5108436;28;20518;-67
2022/02/13 08:19:15;;;;;;;7.28;4.90;;;7.70;61.10;;;;;;5103112;28;20079;-67
2022/02/13 08:22:40;;;;;;;9.23;6.00;;;8.40;49.80;;;;;;5090652;28;20048;-68
2022/02/13 08:26:05;;;;;;;9.80;6.28;;;8.50;52.60;;;;;;5090865;28;20058;-68
2022/02/13 08:29:31;;;;;;;8.55;5.60;;;8.70;48.20;;;;;;5090202;28;20039;-67
2022/02/13 08:32:58;;;;;;;8.80;5.90;;;9.20;41.20;;;;;;5103292;28;20503;-67
2022/02/13 08:36:23;;;;;;;8.43;4.40;;;9.90;41.00;;;;;;5110652;28;20084;-67
2022/02/13 08:39:47;;;;;;;10.40;5.93;;;11.00;34.90;;;;;;5105026;28;20482;-67
2022/02/13 08:43:12;;;;;;;9.63;5.25;;;11.40;31.00;;;;;;5095863;28;20046;-67
2022/02/13 08:46:37;;;;;;;11.20;5.85;;;12.30;29.90;;;;;;5090616;28;20039;-68
2022/02/13 08:50:03;;;;;;;12.50;6.18;;;12.70;30.00;;;;;;5107509;28;20039;-68
2022/02/13 08:53:28;;;;;;;8.10;5.45;;;13.40;28.10;;;;;;5106726;28;20042;-67
2022/02/13 08:56:54;;;;;;;8.85;5.80;;;13.00;24.20;;;;;;5104885;28;20506;-68
2022/02/13 09:00:19;;;;;;;7.53;5.15;;;13.80;22.80;;;;;;5106364;28;20051;-67
2022/02/13 09:03:44;;;;;;;7.20;4.70;;;14.20;21.00;;;;;;5105160;28;20074;-68
2022/02/13 09:07:10;;;;;;;8.25;5.07;;;15.00;21.30;;;;;;5108092;28;20100;-67
2022/02/13 09:10:35;;;;;;;6.35;4.38;;;15.40;22.40;;;;;;5107983;28;20044;-67
2022/02/13 09:14:03;;;;;;;6.68;4.85;;;15.70;20.10;;;;;;5106470;28;20632;-67
2022/02/13 09:17:26;;;;;;;7.68;4.53;;;14.80;19.10;;;;;;5100254;28;20038;-67
2022/02/13 09:20:51;;;;;;;9.40;5.57;;;14.40;22.60;;;;;;5107763;28;20027;-67
2022/02/13 09:24:41;;;;;;;16.65;7.20;;;14.60;22.50;;;;;;5079575;28;20494;-64
2022/02/13 09:28:05;;;;;;;9.43;5.93;;;14.90;18.40;;;;;;5064738;28;20047;-65
2022/02/13 09:31:31;;;;;;;12.57;7.07;;;15.10;15.90;;;;;;5067809;28;20132;-66
2022/02/13 09:34:56;;;;;;;8.35;5.57;;;15.00;16.70;;;;;;5097555;28;20027;-65
2022/02/13 09:38:23;;;;;;;8.20;5.30;;;14.20;16.60;;;;;;5085199;28;20038;-65
2022/02/13 09:41:47;;;;;;;7.15;4.05;;;13.90;18.80;;;;;;5093569;28;20431;-65
2022/02/13 09:45:12;;;;;;;10.10;4.78;;;13.60;17.20;;;;;;5101654;28;20048;-63
2022/02/13 09:48:37;;;;;;;7.45;4.43;;;11.40;21.50;;;;;;5099622;28;20090;-63
2022/02/13 09:52:04;;;;;;;8.15;5.22;;;9.60;29.30;;;;;;5093045;28;20028;-63
2022/02/13 09:55:30;;;;;;;9.98;5.85;;;8.60;34.00;;;;;;5098653;28;20089;-61
2022/02/13 09:58:53;;;;;;;6.95;4.57;;;7.90;38.00;;;;;;5093888;28;20036;-62
2022/02/13 10:02:19;;;;;;;6.45;4.40;;;7.40;41.50;;;;;;5083269;28;20071;-63
2022/02/13 10:05:44;;;;;;;9.52;5.40;;;7.00;43.00;;;;;;5100131;28;20102;-62
2022/02/13 10:08:30;;;;;;;7.38;4.35;;;6.80;43.90;;;;;;5098559;28;20032;-64
2022/02/13 10:12:11;;;;;;;8.02;4.75;;;6.80;47.50;;;;;;5074044;28;20074;-64
2022/02/13 10:14:53;;;;;;;7.93;4.28;;;6.70;47.20;;;;;;5092490;28;20044;-55
2022/02/13 10:17:18;;;;;;;9.48;5.85;;;6.70;47.10;;;;;;5090725;28;20055;-58
2022/02/13 10:19:52;;;;;;;9.80;5.40;;;6.50;45.10;;;;;;5083290;28;20032;-57
2022/02/13 10:22:34;;;;;;;7.57;5.20;;;6.50;48.90;;;;;;5083983;28;20066;-59
2022/02/13 10:25:14;;;;;;;7.68;4.82;;;6.50;49.70;;;;;;5102481;28;20034;-58
2022/02/13 10:27:47;;;;;;;9.88;5.30;;;6.50;50.30;;;;;;5078634;28;20065;-56
2022/02/13 10:30:32;;;;;;;8.98;4.68;;;6.40;49.20;;;;;;5101944;28;20435;-58
2022/02/13 10:33:26;;;;;;;9.45;5.20;;;6.30;51.10;;;;;;5101086;28;20038;-59
2022/02/13 10:36:47;;;;;;;9.88;5.60;;;6.30;51.50;;;;;;5080318;28;20526;-57
2022/02/13 10:40:12;;;;;;;8.55;4.70;;;6.30;50.80;;;;;;5063005;28;20556;-57
2022/02/13 10:43:41;;;;;;;9.18;5.57;;;6.20;51.00;;;;;;5076958;28;20051;-57
2022/02/13 10:46:49;;;;;;;;;;;6.20;51.20;;;;;;5066325;28;20151;-56
2022/02/13 10:50:15;;;;;;;9.23;4.38;;;6.20;51.50;;;;;;5076779;28;20483;-58
2022/02/13 10:53:40;;;;;;;8.30;4.93;;;6.20;52.30;;;;;;5078682;28;20036;-58
2022/02/13 10:57:05;;;;;;;6.38;4.38;;;6.20;52.00;;;;;;5065202;28;20058;-54
2022/02/13 11:00:31;;;;;;;6.55;3.83;;;6.20;52.10;;;;;;5084382;28;20196;-54
2022/02/13 11:03:57;;;;;;;7.38;3.83;;;6.20;52.70;;;;;;5075750;28;20060;-57
2022/02/13 11:07:21;;;;;;;7.20;4.90;;;6.20;52.80;;;;;;5070134;28;20040;-58
2022/02/13 11:10:51;;;;;;;7.40;4.32;;;6.20;50.30;;;;;;5076586;28;20035;-56
2022/02/13 11:14:15;;;;;;;8.40;4.60;;;6.20;51.50;;;;;;5076920;28;20035;-57
2022/02/13 11:17:43;;;;;;;5.57;4.20;;;6.20;49.10;;;;;;5067289;28;20117;-55
2022/02/13 11:21:09;;;;;;;7.03;4.57;;;6.20;50.70;;;;;;5079393;28;20071;-54
2022/02/13 11:24:23;;;;;;;7.68;5.05;;;6.30;50.00;;;;;;5083867;28;20044;-54
2022/02/13 11:27:48;;;;;;;7.72;4.13;;;6.40;47.80;;;;;;5075598;28;20051;-55
2022/02/13 11:31:00;;;;;;;6.57;3.65;;;6.30;48.30;;;;;;5081873;28;20381;-57
2022/02/13 11:34:25;;;;;;;7.63;3.90;;;6.30;48.90;;;;;;5076129;28;20487;-55
2022/02/13 11:37:57;;;;;;;6.75;3.72;;;6.30;45.00;;;;;;5076180;28;20044;-57
2022/02/13 11:40:42;;;;;;;6.90;3.50;;;6.40;47.20;;;;;;5077975;28;20498;-56
2022/02/13 11:43:46;;;;;;;5.13;3.67;;;6.40;46.20;;;;;;5063706;28;20409;-56
2022/02/13 11:46:36;;;;;;;6.20;3.45;;;6.40;43.90;;;;;;5066048;28;20044;-56
2022/02/13 11:49:58;;;;;;;6.03;3.75;;;6.40;46.00;;;;;;5046906;28;20459;-55
2022/02/13 11:53:36;;;;;;;6.60;3.92;;;6.50;41.40;;;;;;5075072;28;20119;-52
2022/02/13 11:57:04;;;;;;;6.88;3.70;;;6.50;43.10;;;;;;5066784;28;20033;-50
2022/02/13 11:59:51;;;;;;;;;;;6.60;44.30;;;;;;5076160;28;20040;-56
2022/02/13 12:02:35;;;;;;;5.88;3.50;;;6.60;43.40;;;;;;5063780;28;20498;-52
2022/02/13 12:06:00;;;;;;;4.75;2.95;;;6.60;46.30;;;;;;5048614;28;20511;-51
2022/02/13 12:09:29;;;;;;;7.43;3.30;;;6.60;43.90;;;;;;5082567;28;20032;-53
2022/02/13 12:12:54;;;;;;;5.32;3.38;;;6.60;43.20;;;;;;5078496;28;20492;-55
2022/02/13 12:16:19;;;;;;;5.57;3.25;;;6.70;41.10;;;;;;5075460;28;20039;-55
2022/02/13 12:19:47;;;;;;;3.88;2.90;;;6.70;40.70;;;;;;5048560;28;20048;-53
2022/02/13 12:22:53;;;;;;;;;;;6.70;44.40;;;;;;5074069;28;20533;-53
2022/02/13 12:26:18;;;;;;;7.55;3.70;;;6.80;41.80;;;;;;5051816;28;20804;-53
2022/02/13 12:29:43;;;;;;;7.10;4.18;;;6.80;39.30;;;;;;5048118;28;20040;-51
2022/02/13 12:33:09;;;;;;;7.32;4.00;;;6.90;38.80;;;;;;5082329;28;20032;-52
2022/02/13 12:36:40;;;;;;;4.25;2.97;;;7.00;37.50;;;;;;5075222;28;20145;-53
2022/02/13 12:40:06;;;;;;;7.43;3.30;;;7.00;40.60;;;;;;5067977;28;20040;-53
2022/02/13 12:43:34;;;;;;;7.05;4.10;;;7.10;40.50;;;;;;5056480;28;20064;-57
2022/02/13 12:46:59;;;;;;;7.25;3.63;;;7.10;40.70;;;;;;5084533;28;20035;-58
2022/02/13 12:50:25;;;;;;;4.78;3.38;;;7.20;39.40;;;;;;5070471;28;20036;-54
2022/02/13 12:53:50;;;;;;;5.60;3.33;;;7.20;38.60;;;;;;5067061;28;20064;-53
2022/02/13 12:57:15;;;;;;;8.00;4.07;;;7.10;38.20;;;;;;5082124;28;20101;-58
2022/02/13 13:00:21;;;;;;;6.03;3.80;;;7.10;37.30;;;;;;5070616;28;20041;-51
2022/02/13 13:03:46;;;;;;;5.65;3.42;;;7.20;35.80;;;;;;5075565;28;20775;-56
2022/02/13 13:07:11;;;;;;;6.15;3.60;;;7.20;34.80;;;;;;5074333;28;20036;-57
2022/02/13 13:10:40;;;;;;;6.57;3.88;;;7.20;36.00;;;;;;5047697;28;20044;-57
2022/02/13 13:13:28;;;;;;;7.25;3.45;;;7.20;34.90;;;;;;5062308;28;20094;-57
2022/02/13 13:16:54;;;;;;;7.40;3.15;;;7.20;35.80;;;;;;5047617;28;20631;-55
2022/02/13 13:20:19;;;;;;;6.05;3.70;;;7.30;36.90;;;;;;5081689;28;20032;-57
2022/02/13 13:23:53;;;;;;;8.32;3.65;;;7.30;33.80;;;;;;5064678;28;20094;-53
2022/02/13 13:26:48;;;;;;;4.82;3.28;;;7.30;35.40;;;;;;5076609;28;20036;-57
2022/02/13 13:30:13;;;;;;;6.60;3.55;;;7.30;35.40;;;;;;5047421;28;20133;-58
2022/02/13 13:33:39;;;;;;;4.50;2.75;;;7.40;35.50;;;;;;5074419;28;20549;-54
2022/02/13 13:37:07;;;;;;;5.15;2.63;;;7.50;38.00;;;;;;5071099;28;20585;-55
2022/02/13 13:40:08;;;;;;;;;;;7.50;36.50;;;;;;5063300;28;20041;-56
2022/02/13 13:43:36;;;;;;;4.45;2.72;;;7.50;34.80;;;;;;5062160;28;20065;-57
2022/02/13 13:46:41;;;;;;;;;;;7.40;37.00;;;;;;5047545;28;20681;-56
2022/02/13 13:49:27;;;;;;;6.88;3.22;;;7.40;33.20;;;;;;5074606;28;20399;-57
2022/02/13 13:51:53;;;;;;;4.75;3.13;;;7.40;34.90;;;;;;5087640;28;20052;-56
2022/02/13 13:54:19;;;;;;;6.28;3.70;;;7.40;36.40;;;;;;5068203;28;20039;-54
2022/02/13 13:57:24;;;;;;;5.28;3.03;;;7.50;33.70;;;;;;5087431;28;20020;-54
2022/02/13 14:00:50;;;;;;;4.28;2.70;;;7.40;34.00;;;;;;5064459;28;20090;-53
2022/02/13 14:04:15;;;;;;;6.03;3.10;;;7.40;34.60;;;;;;5083702;28;20490;-53
2022/02/13 14:07:41;;;;;;;5.25;2.70;;;7.40;34.50;;;;;;5080883;28;20129;-57
2022/02/13 14:11:06;;;;;;;5.47;3.05;;;7.40;33.00;;;;;;5063779;28;20040;-58
2022/02/13 14:14:31;;;;;;;4.95;2.95;;;7.40;32.90;;;;;;5077774;28;20081;-56
2022/02/13 14:17:57;;;;;;;3.97;2.40;;;7.40;32.80;;;;;;5072362;28;20051;-54
2022/02/13 14:21:22;;;;;;;2.95;2.00;;;7.40;33.50;;;;;;5086210;28;20429;-54
2022/02/13 14:24:47;;;;;;;3.83;2.20;;;7.30;34.50;;;;;;5077580;28;20048;-57
2022/02/13 14:28:14;;;;;;;5.30;3.25;;;7.30;33.70;;;;;;5050568;28;20079;-52
2022/02/13 14:31:38;;;;;;;4.40;2.92;;;7.30;35.00;;;;;;5079230;28;20043;-56
2022/02/13 14:35:03;;;;;;;5.95;3.17;;;7.20;32.50;;;;;;5083098;28;20118;-56
2022/02/13 14:38:29;;;;;;;3.92;2.00;;;7.30;32.80;;;;;;5079304;28;20431;-54
2022/02/13 14:41:54;;;;;;;5.43;2.78;;;7.20;34.80;;;;;;5066843;28;20036;-56
2022/02/13 14:45:19;;;;;;;4.60;3.25;;;7.10;34.20;;;;;;5076829;28;20044;-56
2022/02/13 14:48:46;;;;;;;4.50;2.50;;;7.10;33.00;;;;;;5050140;28;20048;-57
2022/02/13 14:52:13;;;;;;;5.88;3.28;;;7.00;33.90;;;;;;5082496;28;20024;-57
2022/02/13 14:55:37;;;;;;;4.75;2.83;;;7.00;34.50;;;;;;5068525;28;20404;-57
2022/02/13 14:59:01;;;;;;;5.68;3.00;;;6.90;34.20;;;;;;5078141;28;20132;-56
2022/02/13 15:02:27;;;;;;;3.95;2.40;;;6.90;35.60;;;;;;5084275;28;20044;-58
2022/02/13 15:05:52;;;;;;;5.82;3.33;;;6.80;35.70;;;;;;5067766;28;20036;-56
2022/02/13 15:09:17;;;;;;;4.32;2.97;;;6.80;35.10;;;;;;5049388;28;20037;-54
2022/02/13 15:12:42;;;;;;;5.88;3.10;;;6.80;34.70;;;;;;5064038;28;20066;-58
2022/02/13 15:16:08;;;;;;;5.57;3.20;;;6.90;35.70;;;;;;5076724;28;20054;-54
2022/02/13 15:19:33;;;;;;;5.70;2.60;;;6.70;36.70;;;;;;5070085;28;20040;-57
2022/02/13 15:22:19;;;;;;;6.10;2.60;;;6.60;37.10;;;;;;5081711;28;20435;-54
2022/02/13 15:24:45;;;;;;;6.18;2.70;;;6.50;38.70;;;;;;5089834;28;20028;-56
2022/02/13 15:27:50;;;;;;;5.10;3.35;;;6.40;39.30;;;;;;5074718;28;20575;-57
2022/02/13 15:31:15;;;;;;;4.25;2.55;;;6.40;40.20;;;;;;5049382;28;20044;-57
2022/02/13 15:34:42;;;;;;;3.45;1.90;;;6.30;40.80;;;;;;5078093;28;20127;-57
2022/02/13 15:38:06;;;;;;;6.45;3.05;;;6.20;41.90;;;;;;5081778;28;20534;-56
2022/02/13 15:41:32;;;;;;;7.32;2.72;;;6.10;42.80;;;;;;5073936;28;20036;-57
2022/02/13 15:44:57;;;;;;;4.22;2.88;;;6.10;43.10;;;;;;5077241;28;20036;-56
2022/02/13 15:48:22;;;;;;;6.05;2.55;;;5.90;44.80;;;;;;5079708;28;20036;-55
2022/02/13 15:51:48;;;;;;;7.20;3.53;;;5.80;46.20;;;;;;5077844;28;20035;-52
2022/02/13 15:55:14;;;;;;;8.43;5.22;;;5.70;48.20;;;;;;5048889;28;20053;-57
2022/02/13 15:58:38;;;;;;;6.97;2.83;;;5.60;49.80;;;;;;5084023;28;20582;-57
2022/02/13 16:02:04;;;;;;;6.45;3.17;;;5.40;52.80;;;;;;5083392;28;20157;-53
2022/02/13 16:05:29;;;;;;;8.57;2.58;;;5.40;53.80;;;;;;5077709;28;20152;-57
2022/02/13 16:08:54;;;;;;;6.18;2.55;;;5.20;57.00;;;;;;5083192;28;20036;-56
2022/02/13 16:12:20;;;;;;;4.07;2.38;;;5.20;60.40;;;;;;5063759;28;20029;-56
2022/02/13 16:15:24;;;;;;;4.90;2.72;;;5.00;60.30;;;;;;5067598;28;20404;-55
2022/02/13 16:17:50;;;;;;;6.00;3.33;;;4.90;65.80;;;;;;5069331;28;20040;-63
2022/02/13 16:20:15;;;;;;;7.25;4.45;;;4.90;63.00;;;;;;5069188;28;21067;-63
2022/02/13 16:22:41;;;;;;;11.52;7.70;;;4.80;64.90;;;;;;5085429;28;20055;-63
2022/02/13 16:25:07;;;;;;;15.10;12.65;;;4.80;68.40;;;;;;5068993;28;20025;-64
2022/02/13 16:27:33;;;;;;;30.73;20.75;;;4.70;68.30;;;;;;5085870;28;20032;-64
2022/02/13 16:29:59;;;;;;;32.28;18.45;;;4.70;71.90;;;;;;5068752;28;20081;-63
2022/02/13 16:32:24;;;;;;;18.58;9.65;;;4.60;72.10;;;;;;5085346;28;20514;-63
2022/02/13 16:34:50;;;;;;;15.00;8.48;;;4.40;75.80;;;;;;5068390;28;20469;-63
2022/02/13 16:37:18;;;;;;;8.93;5.03;;;4.40;74.80;;;;;;5085759;28;20515;-63
2022/02/13 16:39:44;;;;;;;6.13;3.95;;;4.30;84.90;;;;;;5088471;28;20027;-63
2022/02/13 16:42:49;;;;;;;4.78;3.20;;;4.40;86.60;;;;;;5062927;28;20652;-64
2022/02/13 16:46:15;;;;;;;4.38;3.15;;;4.50;89.60;;;;;;5048220;28;20095;-63
2022/02/13 16:49:40;;;;;;;5.85;3.15;;;4.40;91.00;;;;;;5078065;28;20522;-63
2022/02/13 16:53:05;;;;;;;5.47;3.25;;;4.30;93.40;;;;;;5051849;28;20024;-63
2022/02/13 16:56:31;;;;;;;7.40;2.75;;;4.20;92.30;;;;;;5070422;28;20039;-64
2022/02/13 16:59:56;;;;;;;7.18;2.90;;;4.20;94.80;;;;;;5082266;28;20481;-64
2022/02/13 17:03:21;;;;;;;4.47;2.83;;;4.10;95.80;;;;;;5082239;28;20040;-64
2022/02/13 17:06:49;;;;;;;10.05;3.88;;;4.10;99.90;;;;;;5047767;28;20067;-64
2022/02/13 17:10:12;;;;;;;5.60;3.25;;;4.20;99.90;;;;;;5075906;28;20086;-63
2022/02/13 17:13:40;;;;;;;7.60;3.25;;;4.30;99.70;;;;;;5061122;28;20131;-64
2022/02/13 17:17:06;;;;;;;10.88;3.92;;;4.40;99.90;;;;;;5083450;28;20036;-64
2022/02/13 17:20:31;;;;;;;4.80;3.67;;;4.40;99.90;;;;;;5080766;28;20059;-64
2022/02/13 17:24:02;;;;;;;8.35;3.70;;;4.40;99.90;;;;;;5075088;28;20051;-64